.
WxDataArchive / Data Records for 2015-11-04
2015-11-03 November 2015 2015-11-05

Data Records for Wednesday, 04 November 2015

Time	Temp	Chill	HIndex	Humid	Dewpt	 Wind 	HiWind	WindDir	Rain 	Barom
-----	----	-----	------	-----	-----	------	------	-------	-----	-----
00:00	47.4	47.4	47.4	86	43.4	0	0	---	0.00	30.135 
00:05	47.4	47.4	47.4	86	43.4	0	0	---	0.00	30.135 
00:10	47.3	47.3	47.3	86	43.3	0	0	---	0.00	30.135 
00:15	47.1	47.1	47.1	86	43.1	0	0	---	0.00	30.131 
00:20	47.1	47.1	47.1	87	43.4	0	0	---	0.00	30.131 
00:25	47.1	47.1	47.1	87	43.4	0	0	---	0.00	30.131 
00:30	47.1	47.1	47.1	87	43.4	0	0	---	0.00	30.128 
00:35	47.0	47.0	47.0	87	43.3	0	0	---	0.00	30.128 
00:40	47.0	47.0	47.0	87	43.3	0	0	---	0.00	30.128 
00:45	46.8	46.8	46.8	88	43.4	0	0	---	0.00	30.129 
00:50	46.7	46.7	46.7	88	43.3	0	0	---	0.00	30.129 
00:55	46.5	46.5	46.5	88	43.1	0	0	---	0.00	30.129 
01:00	46.5	46.5	46.5	88	43.1	0	0	---	0.00	30.130 
01:05	46.4	46.4	46.4	88	43.0	0	0	---	0.00	30.130 
01:10	46.4	46.4	46.4	88	43.0	0	0	---	0.00	30.130 
01:15	46.2	46.2	46.2	88	42.8	0	0	---	0.00	30.131 
01:20	46.4	46.4	46.4	89	43.3	0	0	---	0.00	30.131 
01:25	46.4	46.4	46.4	89	43.3	0	0	---	0.00	30.131 
01:30	46.2	46.2	46.2	89	43.1	0	0	---	0.00	30.129 
01:35	46.2	46.2	46.2	89	43.1	0	0	---	0.00	30.129 
01:40	46.2	46.2	46.2	89	43.1	0	0	---	0.00	30.129 
01:45	46.1	46.1	46.1	89	43.0	0	0	---	0.00	30.127 
01:50	46.0	46.0	46.0	90	43.2	0	0	---	0.00	30.127 
01:55	46.0	46.0	46.0	90	43.2	0	0	---	0.00	30.127 
02:00	46.0	46.0	46.0	90	43.2	0	0	---	0.00	30.127 
02:05	45.8	45.8	45.8	90	43.0	0	0	---	0.00	30.127 
02:10	45.8	45.8	45.8	90	43.0	0	0	---	0.00	30.127 
02:15	45.7	45.7	45.7	90	42.9	0	0	---	0.00	30.127 
02:20	45.7	45.7	45.7	90	42.9	0	0	---	0.00	30.127 
02:25	45.7	45.7	45.7	90	42.9	0	0	---	0.00	30.127 
02:30	45.5	45.5	45.5	91	43.0	0	0	---	0.00	30.125 
02:35	45.5	45.5	45.5	90	42.7	0	0	---	0.00	30.125 
02:40	45.5	45.5	45.5	91	43.0	0	0	---	0.00	30.125 
02:45	45.4	45.4	45.4	91	42.9	0	0	---	0.00	30.130 
02:50	45.4	45.4	45.4	91	42.9	0	0	---	0.00	30.130 
02:55	45.2	45.2	45.2	91	42.7	0	0	---	0.00	30.130 
03:00	45.2	45.2	45.2	91	42.7	0	0	---	0.00	30.128 
03:05	45.2	45.2	45.2	91	42.7	0	0	---	0.00	30.128 
03:10	45.1	45.1	45.1	91	42.6	0	0	---	0.00	30.128 
03:15	45.1	45.1	45.1	91	42.6	0	0	---	0.00	30.129 
03:20	44.9	44.9	44.9	91	42.4	0	0	---	0.00	30.129 
03:25	44.9	44.9	44.9	91	42.4	0	0	---	0.00	30.129 
03:30	44.8	44.8	44.8	91	42.3	0	0	---	0.00	30.127 
03:35	44.8	44.8	44.8	91	42.3	0	0	---	0.00	30.127 
03:40	44.8	44.8	44.8	91	42.3	0	0	---	0.00	30.127 
03:45	44.8	44.8	44.8	91	42.3	0	0	---	0.00	30.127 
03:50	44.8	44.8	44.8	91	42.3	0	0	---	0.00	30.127 
03:55	44.6	44.6	44.6	91	42.1	0	0	---	0.00	30.127 
04:00	44.6	44.6	44.6	91	42.1	0	0	---	0.00	30.130 
04:05	44.6	44.6	44.6	91	42.1	0	0	---	0.00	30.130 
04:10	44.6	44.6	44.6	92	42.4	0	0	---	0.00	30.130 
04:15	44.6	44.6	44.6	92	42.4	0	0	---	0.00	30.133 
04:20	44.5	44.5	44.5	92	42.3	0	0	---	0.00	30.133 
04:25	44.5	44.5	44.5	92	42.3	0	0	---	0.00	30.133 
04:30	44.3	44.3	44.3	92	42.1	0	0	---	0.00	30.137 
04:35	44.3	44.3	44.3	92	42.1	0	0	---	0.00	30.137 
04:40	44.5	44.5	44.5	92	42.3	0	0	---	0.00	30.137 
04:45	44.3	44.3	44.3	92	42.1	0	0	---	0.00	30.137 
04:50	44.3	44.3	44.3	92	42.1	0	0	---	0.00	30.137 
04:55	44.3	44.3	44.3	92	42.1	0	0	---	0.00	30.137 
05:00	44.2	44.2	44.2	92	42.0	0	0	---	0.00	30.137 
05:05	44.2	44.2	44.2	92	42.0	0	0	---	0.00	30.137 
05:10	44.2	44.2	44.2	92	42.0	0	0	---	0.00	30.137 
05:15	44.2	44.2	44.2	92	42.0	0	0	---	0.00	30.143 
05:20	44.2	44.2	44.2	92	42.0	0	0	---	0.00	30.143 
05:25	44.2	44.2	44.2	92	42.0	0	0	---	0.00	30.143 
05:30	44.2	44.2	44.2	92	42.0	0	0	---	0.00	30.144 
05:35	44.1	44.1	44.1	92	41.9	0	0	---	0.00	30.144 
05:40	44.1	44.1	44.1	92	41.9	0	0	---	0.00	30.144 
05:45	43.9	43.9	43.9	92	41.7	0	0	---	0.00	30.144 
05:50	44.1	44.1	44.1	92	41.9	0	0	---	0.00	30.144 
05:55	44.1	44.1	44.1	92	41.9	0	0	---	0.00	30.144 
06:00	44.1	44.1	44.1	93	42.2	0	0	---	0.00	30.144 
06:05	44.1	44.1	44.1	92	41.9	0	0	---	0.00	30.144 
06:10	44.1	44.1	44.1	92	41.9	0	0	---	0.00	30.144 
06:15	43.9	43.9	43.9	92	41.7	0	0	---	0.00	30.147 
06:20	43.9	43.9	43.9	93	42.0	0	0	---	0.00	30.147 
06:25	43.9	43.9	43.9	93	42.0	0	0	---	0.00	30.147 
06:30	43.8	43.8	43.8	93	41.9	0	0	---	0.00	30.147 
06:35	43.8	43.8	43.8	93	41.9	0	0	---	0.00	30.147 
06:40	43.8	43.8	43.8	93	41.9	0	0	---	0.00	30.147 
06:45	43.8	43.8	43.8	93	41.9	0	0	---	0.00	30.146 
06:50	43.9	43.9	43.9	93	42.0	0	0	---	0.00	30.146 
06:55	43.9	43.9	43.9	93	42.0	0	0	---	0.00	30.146 
07:00	43.9	43.9	43.9	93	42.0	0	0	---	0.00	30.149 
07:05	43.9	43.9	43.9	93	42.0	0	0	---	0.00	30.149 
07:10	43.8	43.8	43.8	93	41.9	0	0	---	0.00	30.149 
07:15	43.8	43.8	43.8	93	41.9	0	0	---	0.00	30.159 
07:20	43.9	43.9	43.9	93	42.0	0	0	---	0.00	30.159 
07:25	43.9	43.9	43.9	93	42.0	0	0	---	0.00	30.159 
07:30	43.9	43.9	43.9	93	42.0	0	0	---	0.00	30.165 
07:35	43.9	43.9	43.9	93	42.0	0	0	---	0.00	30.165 
07:40	44.1	44.1	44.1	93	42.2	0	0	---	0.00	30.165 
07:45	44.1	44.1	44.1	93	42.2	0	0	---	0.00	30.167 
07:50	44.1	44.1	44.1	93	42.2	0	0	---	0.00	30.167 
07:55	44.2	44.2	44.2	93	42.3	0	0	---	0.00	30.167 
08:00	44.3	44.3	44.3	93	42.4	0	0	---	0.00	30.166 
08:05	44.6	44.6	44.6	94	43.0	0	0	---	0.00	30.166 
08:10	45.2	45.2	45.2	94	43.6	0	0	---	0.00	30.166 
08:15	45.8	45.8	45.8	94	44.2	0	0	---	0.00	30.170 
08:20	46.5	46.5	46.5	94	44.9	0	0	---	0.00	30.170 
08:25	47.7	47.7	47.7	96	46.6	0	0	---	0.00	30.170 
08:30	48.8	48.8	48.8	95	47.4	0	0	---	0.00	30.172 
08:35	49.8	49.8	49.8	95	48.4	0	0	---	0.00	30.172 
08:40	50.5	50.5	50.5	94	48.8	0	0	---	0.00	30.172 
08:45	51.0	51.0	51.0	94	49.3	0	0	---	0.00	30.176 
08:50	51.7	51.7	51.7	94	50.0	0	0	---	0.00	30.176 
08:55	52.6	52.6	52.6	94	50.9	0	0	---	0.00	30.176 
09:00	54.1	54.1	54.1	94	52.4	0	1	90	0.00	30.175 
09:05	55.3	55.3	55.3	92	53.0	0	0	---	0.00	30.175 
09:10	56.6	56.6	56.6	91	54.0	0	1	90	0.00	30.175 
09:15	57.6	57.6	57.6	88	54.1	0	1	90	0.00	30.174 
09:20	58.7	58.7	58.7	86	54.5	0	0	---	0.00	30.174 
09:25	59.3	59.3	59.3	84	54.5	0	1	90	0.00	30.174 
09:30	60.1	60.1	60.1	81	54.2	0	1	90	0.00	30.172 
09:35	60.9	60.9	60.9	79	54.3	0	1	90	0.00	30.172 
09:40	61.8	61.8	61.8	77	54.5	0	2	90	0.00	30.172 
09:45	62.7	62.7	62.7	76	55.0	0	1	90	0.00	30.168 
09:50	63.7	63.7	63.7	74	55.3	0	2	90	0.00	30.168 
09:55	64.7	64.7	64.7	72	55.5	0	1	90	0.00	30.168 
10:00	65.5	65.5	65.5	69	55.1	0	2	90	0.00	30.165 
10:05	66.0	66.0	66.0	70	55.9	0	1	90	0.00	30.165 
10:10	66.3	66.3	66.3	69	55.8	0	2	90	0.00	30.165 
10:15	66.6	66.6	66.6	69	56.1	0	1	90	0.00	30.164 
10:20	67.1	67.1	67.1	68	56.2	0	1	90	0.00	30.164 
10:25	67.6	67.6	67.6	67	56.2	0	1	90	0.00	30.164 
10:30	67.8	67.8	67.8	67	56.4	0	0	---	0.00	30.164 
10:35	67.8	67.8	67.8	67	56.4	0	1	90	0.00	30.164 
10:40	67.9	67.9	67.9	68	56.9	0	1	90	0.00	30.164 
10:45	67.9	67.9	67.9	67	56.5	0	2	90	0.00	30.163 
10:50	68.1	68.1	68.1	68	57.1	0	1	90	0.00	30.163 
10:55	68.3	68.3	68.3	68	57.3	0	2	90	0.00	30.163 
11:00	68.6	68.6	68.6	69	58.0	0	2	90	0.00	30.161 
11:05	68.9	68.9	68.9	68	57.9	0	2	90	0.00	30.161 
11:10	69.3	69.3	69.3	67	57.9	1	3	90	0.00	30.161 
11:15	69.6	69.6	69.6	67	58.1	1	3	90	0.00	30.154 
11:20	69.8	69.8	69.8	66	57.9	0	2	90	0.00	30.154 
11:25	70.3	70.3	70.3	66	58.4	1	3	22	0.00	30.154 
11:30	70.4	70.4	70.4	65	58.1	1	3	22	0.00	30.148 
11:35	70.8	70.8	70.8	65	58.4	0	3	22	0.00	30.148 
11:40	70.9	70.9	70.9	64	58.1	1	2	22	0.00	30.148 
11:45	71.1	71.1	71.1	64	58.3	0	1	22	0.00	30.144 
11:50	71.3	71.3	71.3	64	58.5	0	1	22	0.00	30.144 
11:55	71.6	71.6	71.6	62	57.9	0	4	248	0.00	30.144 
12:00	71.8	71.8	71.8	63	58.5	0	2	248	0.00	30.137 
12:05	72.1	72.1	72.1	62	58.3	0	1	248	0.00	30.137 
12:10	72.3	72.3	72.3	62	58.5	1	4	248	0.00	30.137 
12:15	72.7	72.7	72.7	61	58.5	0	3	270	0.00	30.129 
12:20	73.0	73.0	73.0	60	58.3	1	4	270	0.00	30.129 
12:25	73.2	73.2	73.2	58	57.5	1	3	248	0.00	30.129 
12:30	73.3	73.3	73.3	59	58.1	1	4	270	0.00	30.123 
12:35	73.5	73.5	73.5	60	58.7	0	2	270	0.00	30.123 
12:40	73.7	73.7	73.7	58	58.0	0	3	270	0.00	30.123 
12:45	73.9	73.9	73.9	58	58.2	0	2	270	0.00	30.118 
12:50	73.9	73.9	73.9	58	58.2	0	3	270	0.00	30.118 
12:55	73.9	73.9	73.9	57	57.7	1	4	270	0.00	30.118 
13:00	74.0	74.0	74.0	57	57.8	1	4	292	0.00	30.114 
13:05	74.0	74.0	74.0	57	57.8	1	3	292	0.00	30.114 
13:10	74.4	74.4	74.4	57	58.2	1	3	292	0.00	30.114 
13:15	74.7	74.7	74.7	56	57.9	1	3	292	0.00	30.113 
13:20	74.7	74.7	74.7	56	57.9	1	5	292	0.00	30.113 
13:25	74.9	74.9	74.9	57	58.6	1	3	292	0.00	30.113 
13:30	75.3	75.3	77.7	55	58.0	0	2	292	0.00	30.105 
13:35	75.6	75.6	77.8	56	58.8	0	2	292	0.00	30.105 
13:40	75.6	75.6	77.8	55	58.3	1	5	112	0.00	30.105 
13:45	75.4	75.4	77.7	55	58.1	0	2	112	0.00	30.099 
13:50	75.6	75.6	77.8	55	58.3	0	2	112	0.00	30.099 
13:55	75.8	75.8	78.0	55	58.5	0	2	112	0.00	30.099 
14:00	75.8	75.8	78.0	55	58.5	0	4	112	0.00	30.094 
14:05	75.4	75.4	77.7	55	58.1	0	1	112	0.00	30.094 
14:10	75.1	75.1	77.6	55	57.8	0	1	112	0.00	30.094 
14:15	74.6	74.6	74.6	56	57.8	0	3	112	0.00	30.092 
14:20	74.2	74.2	74.2	56	57.5	0	2	112	0.00	30.092 
14:25	74.2	74.2	74.2	55	57.0	0	2	112	0.00	30.092 
14:30	74.4	74.4	74.4	55	57.2	0	1	112	0.00	30.088 
14:35	74.7	74.7	74.7	53	56.4	1	3	112	0.00	30.088 
14:40	74.7	74.7	74.7	54	56.9	0	2	112	0.00	30.088 
14:45	74.9	74.9	74.9	54	57.1	0	4	225	0.00	30.086 
14:50	75.1	75.1	77.6	53	56.8	1	3	225	0.00	30.086 
14:55	75.3	75.3	77.7	52	56.4	0	2	225	0.00	30.086 
15:00	75.4	75.4	77.8	52	56.5	0	2	225	0.00	30.088 
15:05	75.6	75.6	77.9	51	56.2	0	2	225	0.00	30.088 
15:10	75.6	75.6	77.9	52	56.7	0	2	225	0.00	30.088 
15:15	75.6	75.6	77.9	51	56.2	0	1	225	0.00	30.085 
15:20	75.4	75.4	77.8	50	55.4	1	3	225	0.00	30.085 
15:25	75.4	75.4	77.8	50	55.4	0	2	225	0.00	30.085 
15:30	75.3	75.3	77.7	51	55.9	0	3	225	0.00	30.083 
15:35	75.3	75.3	77.7	51	55.9	0	2	225	0.00	30.083 
15:40	75.1	75.1	77.6	52	56.3	0	3	225	0.00	30.083 
15:45	74.9	74.9	74.9	52	56.1	0	2	248	0.00	30.085 
15:50	74.7	74.7	74.7	53	56.4	0	1	248	0.00	30.085 
15:55	74.6	74.6	74.6	54	56.8	0	1	248	0.00	30.085 
16:00	74.6	74.6	74.6	53	56.3	0	3	248	0.00	30.087 
16:05	74.6	74.6	74.6	53	56.3	0	1	248	0.00	30.087 
16:10	74.6	74.6	74.6	52	55.8	1	3	248	0.00	30.087 
16:15	74.6	74.6	74.6	52	55.8	0	2	248	0.00	30.093 
16:20	74.4	74.4	74.4	54	56.7	0	2	248	0.00	30.093 
16:25	74.0	74.0	74.0	53	55.8	0	2	248	0.00	30.093 
16:30	73.9	73.9	73.9	54	56.2	0	1	248	0.00	30.094 
16:35	73.7	73.7	73.7	55	56.5	0	2	248	0.00	30.094 
16:40	73.5	73.5	73.5	55	56.3	0	0	---	0.00	30.094 
16:45	73.2	73.2	73.2	56	56.5	0	0	---	0.00	30.091 
16:50	73.0	73.0	73.0	56	56.4	0	0	---	0.00	30.091 
16:55	72.7	72.7	72.7	57	56.6	0	0	---	0.00	30.091 
17:00	72.5	72.5	72.5	58	56.9	0	0	---	0.00	30.087 
17:05	72.1	72.1	72.1	58	56.5	0	0	---	0.00	30.087 
17:10	72.0	72.0	72.0	58	56.4	0	0	---	0.00	30.087 
17:15	71.6	71.6	71.6	59	56.5	0	0	---	0.00	30.089 
17:20	71.3	71.3	71.3	59	56.2	0	0	---	0.00	30.089 
17:25	70.8	70.8	70.8	60	56.2	0	0	---	0.00	30.089 
17:30	70.4	70.4	70.4	61	56.3	0	0	---	0.00	30.088 
17:35	69.9	69.9	69.9	62	56.3	0	0	---	0.00	30.088 
17:40	69.3	69.3	69.3	63	56.2	0	0	---	0.00	30.088 
17:45	68.8	68.8	68.8	65	56.5	0	0	---	0.00	30.088 
17:50	68.1	68.1	68.1	66	56.3	0	0	---	0.00	30.088 
17:55	67.3	67.3	67.3	68	56.4	0	0	---	0.00	30.088 
18:00	66.6	66.6	66.6	69	56.1	0	0	---	0.00	30.092 
18:05	66.1	66.1	66.1	71	56.4	0	0	---	0.00	30.092 
18:10	65.6	65.6	65.6	72	56.3	0	0	---	0.00	30.092 
18:15	65.0	65.0	65.0	74	56.5	0	0	---	0.00	30.096 
18:20	64.5	64.5	64.5	75	56.4	0	0	---	0.00	30.096 
18:25	64.2	64.2	64.2	75	56.1	0	0	---	0.00	30.096 
18:30	63.9	63.9	63.9	76	56.2	0	0	---	0.00	30.101 
18:35	63.4	63.4	63.4	77	56.1	0	0	---	0.00	30.101 
18:40	63.1	63.1	63.1	78	56.1	0	0	---	0.00	30.101 
18:45	62.6	62.6	62.6	78	55.6	0	0	---	0.00	30.104 
18:50	62.3	62.3	62.3	79	55.7	0	0	---	0.00	30.104 
18:55	62.0	62.0	62.0	79	55.4	0	0	---	0.00	30.104 
19:00	61.6	61.6	61.6	80	55.4	0	0	---	0.00	30.108 
19:05	61.3	61.3	61.3	81	55.4	0	0	---	0.00	30.108 
19:10	61.0	61.0	61.0	81	55.1	0	0	---	0.00	30.108 
19:15	60.7	60.7	60.7	81	54.8	0	0	---	0.00	30.111 
19:20	60.5	60.5	60.5	81	54.6	0	0	---	0.00	30.111 
19:25	60.2	60.2	60.2	82	54.7	0	0	---	0.00	30.111 
19:30	60.1	60.1	60.1	83	54.9	0	0	---	0.00	30.112 
19:35	59.9	59.9	59.9	83	54.7	0	0	---	0.00	30.112 
19:40	59.6	59.6	59.6	84	54.8	0	0	---	0.00	30.112 
19:45	59.5	59.5	59.5	84	54.7	0	0	---	0.00	30.112 
19:50	59.3	59.3	59.3	85	54.8	0	0	---	0.00	30.112 
19:55	59.2	59.2	59.2	85	54.7	0	0	---	0.00	30.112 
20:00	59.0	59.0	59.0	86	54.8	0	0	---	0.00	30.113 
20:05	58.9	58.9	58.9	86	54.7	0	0	---	0.00	30.113 
20:10	58.7	58.7	58.7	86	54.5	0	1	248	0.00	30.113 
20:15	58.6	58.6	58.6	87	54.7	0	0	---	0.00	30.103 
20:20	58.4	58.4	58.4	87	54.5	0	0	---	0.00	30.103 
20:25	58.3	58.3	58.3	87	54.4	0	0	---	0.00	30.103 
20:30	58.1	58.1	58.1	88	54.6	0	0	---	0.00	30.104 
20:35	58.1	58.1	58.1	88	54.6	0	0	---	0.00	30.104 
20:40	58.0	58.0	58.0	88	54.5	0	0	---	0.00	30.104 
20:45	57.8	57.8	57.8	88	54.3	0	0	---	0.00	30.104 
20:50	57.5	57.5	57.5	88	54.0	0	0	---	0.00	30.104 
20:55	57.3	57.3	57.3	88	53.8	0	0	---	0.00	30.104 
21:00	57.3	57.3	57.3	88	53.8	0	0	---	0.00	30.106 
21:05	57.2	57.2	57.2	89	54.0	0	0	---	0.00	30.106 
21:10	57.0	57.0	57.0	89	53.8	0	0	---	0.00	30.106 
21:15	57.2	57.2	57.2	90	54.3	0	0	---	0.00	30.097 
21:20	57.0	57.0	57.0	90	54.1	0	0	---	0.00	30.097 
21:25	56.9	56.9	56.9	90	54.0	0	0	---	0.00	30.097 
21:30	56.7	56.7	56.7	90	53.8	0	0	---	0.00	30.096 
21:35	56.6	56.6	56.6	90	53.7	0	0	---	0.00	30.096 
21:40	56.6	56.6	56.6	90	53.7	0	0	---	0.00	30.096 
21:45	56.5	56.5	56.5	90	53.6	0	0	---	0.00	30.096 
21:50	56.5	56.5	56.5	91	53.9	0	0	---	0.00	30.096 
21:55	56.3	56.3	56.3	91	53.7	0	0	---	0.00	30.096 
22:00	56.3	56.3	56.3	91	53.7	0	0	---	0.00	30.096 
22:05	56.5	56.5	56.5	92	54.2	0	0	---	0.00	30.096 
22:10	56.7	56.7	56.7	92	54.4	0	0	---	0.00	30.096 
22:15	57.0	57.0	57.0	92	54.7	0	0	---	0.00	30.093 
22:20	57.2	57.2	57.2	91	54.6	0	0	---	0.00	30.093 
22:25	57.2	57.2	57.2	91	54.6	0	0	---	0.00	30.093 
22:30	57.3	57.3	57.3	91	54.7	0	0	---	0.00	30.092 
22:35	57.3	57.3	57.3	92	55.0	0	0	---	0.00	30.092 
22:40	57.3	57.3	57.3	92	55.0	0	0	---	0.00	30.092 
22:45	57.3	57.3	57.3	92	55.0	0	0	---	0.00	30.092 
22:50	57.5	57.5	57.5	92	55.2	0	0	---	0.00	30.092 
22:55	57.5	57.5	57.5	92	55.2	0	0	---	0.00	30.092 
23:00	57.5	57.5	57.5	92	55.2	0	0	---	0.00	30.092 
23:05	57.5	57.5	57.5	92	55.2	0	0	---	0.00	30.092 
23:10	57.6	57.6	57.6	92	55.3	0	0	---	0.00	30.092 
23:15	57.6	57.6	57.6	92	55.3	0	0	---	0.00	30.089 
23:20	57.6	57.6	57.6	92	55.3	0	0	---	0.00	30.089 
23:25	57.6	57.6	57.6	92	55.3	0	0	---	0.00	30.089 
23:30	57.8	57.8	57.8	92	55.5	0	0	---	0.00	30.085 
23:35	58.0	58.0	58.0	92	55.7	0	0	---	0.00	30.085 
23:40	58.1	58.1	58.1	92	55.8	0	0	---	0.00	30.085 
23:45	58.3	58.3	58.3	92	56.0	0	0	---	0.00	30.079 
23:50	58.3	58.3	58.3	92	56.0	0	0	---	0.00	30.079 
23:55	58.3	58.3	58.3	92	56.0	0	0	---	0.00	30.079 

CoCoRaHS
IN-AL-39
A2 Web Hosting
Creative Commons License
GoDaddy
search engine by freefind advanced

loaded 2018-11-15 16:48:37 • last modified 2010-11-18 10:43:29
Privacy PolicyDisclaimer
• wx.awcolley.com is powered by PmWiki v.2002016 •
• all content (unless otherwise noted) © 2018 A W Colley